VHATL YTRE-YTRE

Flight info

Callsign VHATL
Flight time 0h 2m
Altitude 200
Route DCT
Aircraft C172/L-SFG/C

Departure

Time 2026-04-22 10:18
Airport Taree Airport (YTRE)

Arrival

Time 2026-04-22 10:20
Airport Taree Airport (YTRE)
Time Latitude Longitude Altitude Speed Heading
2026-04-22 10:09 -31.89064 152.50970 45 ft 0 kts 42°
2026-04-22 10:13 -31.89062 152.50972 45 ft 2 kts 49°
2026-04-22 10:13 -31.89080 152.50984 46 ft 6 kts 242°
2026-04-22 10:13 -31.89095 152.50967 45 ft 4 kts 156°
2026-04-22 10:13 -31.89102 152.50984 45 ft 7 kts 106°
2026-04-22 10:14 -31.89143 152.51041 43 ft 0 kts 129°
2026-04-22 10:14 -31.89143 152.51042 43 ft 0 kts 129°
2026-04-22 10:14 -31.89156 152.51057 43 ft 6 kts 136°
2026-04-22 10:15 -31.89165 152.51140 44 ft 18 kts 41°
2026-04-22 10:15 -31.89064 152.51258 42 ft 25 kts 47°
2026-04-22 10:15 -31.88933 152.51413 40 ft 29 kts 46°
2026-04-22 10:15 -31.88784 152.51569 41 ft 16 kts 44°
2026-04-22 10:16 -31.88752 152.51606 42 ft 0 kts 25°
2026-04-22 10:16 -31.88751 152.51603 42 ft 0 kts 230°
2026-04-22 10:16 -31.88754 152.51602 42 ft 3 kts 202°
2026-04-22 10:16 -31.88879 152.51476 40 ft 46 kts 226°
2026-04-22 10:17 -31.89188 152.51104 58 ft 77 kts 226°
2026-04-22 10:17 -31.89555 152.50660 270 ft 72 kts 223°
2026-04-22 10:17 -31.89960 152.50273 436 ft 70 kts 214°
2026-04-22 10:17 -31.90371 152.50460 594 ft 76 kts 146°
2026-04-22 10:18 -31.90775 152.50946 705 ft 86 kts 125°
2026-04-22 10:18 -31.90707 152.51673 835 ft 99 kts 64°
2026-04-22 10:18 -31.90293 152.52433 678 ft 126 kts 60°
2026-04-22 10:18 -31.89743 152.53302 562 ft 132 kts 50°
2026-04-22 10:19 -31.89164 152.54034 700 ft 119 kts 42°
2026-04-22 10:19 -31.88426 152.54042 633 ft 109 kts 316°
2026-04-22 10:19 -31.88062 152.53482 592 ft 74 kts 304°
2026-04-22 10:19 -31.87851 152.52894 238 ft 71 kts 252°
2026-04-22 10:20 -31.88089 152.52438 140 ft 64 kts 227°
2026-04-22 10:20 -31.88379 152.52069 76 ft 59 kts 221°
2026-04-22 10:20 -31.88655 152.51743 46 ft 49 kts 224°
2026-04-22 10:20 -31.88878 152.51485 42 ft 57 kts 233°
2026-04-22 10:21 -31.89180 152.51130 120 ft 68 kts 220°
2026-04-22 10:21 -31.89572 152.50945 197 ft 63 kts 152°
2026-04-22 10:21 -31.89634 152.51324 46 ft 0 kts 200°